Terminal Aerodrome Forecast
Issued by NWS

Home | Current Version | Previous Version | Graphics & Text | Print | Product List | Glossary On
Versions: 1 2 3 4 5 6 7 8 9 10 11 12 13 14 15 16 17 18 19
000
FTUS43 KPAH 300200 AAA
TAFCGI
TAF AMD
KCGI 300205Z 3002/3024 34011G18KT P6SM OVC027
      TEMPO 3002/3005 33006KT OVC035
     FM300830 34009G16KT P6SM OVC018
     FM301800 01006KT P6SM SCT020
     FM302100 36003KT P6SM SKC=

USA.gov is the U.S. government's official web portal to all federal, state and local government web resources and services.